Tropical Cyclones
[Index]
Main Index Home Page Stock Weather Photos Extreme Storms Discussion Storm News and Storm Chasing Reports Tropical Cyclones / Hurricanes / Typhoons Weather Data and Links Wild Fires / Bushfires Weather Observation Techniques Weather Picture Catalogue Tornado Pictures and Reports Stock Video Footage and DVDs for sale
Season 2014-2015 Tropical Cyclone 201502 Track Map
Season 2014-2015 Summaries (Operational Data): [AU] [SIO] [SPAC] [SH]
<<- Previous TC | 2014-2015 Season | Next TC ->>

click for intensity scale information  Lat/long Grid: Show Hide

 Date Labels: Show Hide

Operational Tropical Cyclone Data : JTWC Advisories

Name: 201502
Number: 1502

20 Nov 2014 18:00 UTC to 30 Nov 2014 12:00 UTC

    date/time    lat    long     hPa   cat  kts
2014-11-20 18    6.0    91.7    1010         15          
2014-11-21 00    6.0    90.6    1010         15          
2014-11-21 06    6.3    86.2    1010         15          
2014-11-21 12    6.6    85.6    1010         15          
2014-11-21 18    6.8    84.9    1007         20          
2014-11-22 00    7.0    84.1    1007         20          
2014-11-22 06    8.0    83.2    1007         20          
2014-11-22 12    8.9    82.3    1006         20          
2014-11-22 18    9.4    81.8    1007         20          
2014-11-23 00    9.9    80.2    1007         20          
2014-11-23 06    9.3    78.5    1006         25          
2014-11-23 12    8.9    77.1    1007         20          
2014-11-23 18    9.0    75.3    1007         20          
2014-11-24 00    9.6    73.8    1007         20          
2014-11-24 06    8.8    72.4    1007         20          
2014-11-24 12    8.8    71.8    1005         25          
2014-11-24 18    9.2    71.0    1004         25          
2014-11-25 00    9.6    70.6    1002         25          
2014-11-25 06   10.0    70.3    1000         30          
2014-11-25 12   10.4    70.0    1000         30          
2014-11-25 18   10.9    69.7    1000         30          
2014-11-26 00   11.5    68.8    1000         30          
2014-11-26 06   12.0    67.7    1000         30          
2014-11-26 12   12.4    66.9    1000         30          
2014-11-26 18   12.7    66.6    1000         30          
2014-11-27 00   13.3    65.5    1000         30          
2014-11-27 06   13.8    64.7    1000         30          
2014-11-27 12   14.2    63.9    1000         30          
2014-11-27 18   14.4    63.4    1000         30          
2014-11-28 00   14.8    63.0    1000         30          
2014-11-28 06   15.4    62.5    1000         30          
2014-11-28 12   16.1    61.6     996    1    35          
2014-11-28 18   16.7    61.1     996    1    35          
2014-11-29 00   17.2    60.7    1000         30          
2014-11-29 06   17.7    60.3    1000         30          
2014-11-29 12   18.5    60.3    1000         30          
2014-11-29 18   19.2    60.2    1004         25          
2014-11-30 00   19.5    60.2    1004         25          
2014-11-30 06   19.9    60.0    1001         25          
2014-11-30 10   20.1    60.0    1001         25          
2014-11-30 12   20.0    60.0    1004                     
Winds are 10-min average.

Tropical cyclone tracks developed by Michael Bath using operational warnings and advisories and Google Maps.


[Australian Severe Weather index] [Copyright Notice] [Email Contacts] [Search This Site] [Privacy Policy]
Document: tropical_cyclone_201502.htm Updated: 2 May 2017